Weather at Dungannon

Public forecast

Using degrees Celsius for public forecast. Weather courtesy of forecast.io.

Closest aviation weather report (METAR) to Dungannon

Closest report is London Airport, 52.0 nm (96.3 km) SSE. Retrieved 2021/06/22 16:00 UTC (12 minutes ago):

CYXU 221600Z 34009KT 290V010 15SM BKN044 15/05 A2996 RMK SC6 SLP148 DENSITY ALT 1100FT

Closest aviation forecast (TAF) to Dungannon

Closest forecast is London Airport, 52.0 nm (96.3 km) SSE. Retrieved 2021/06/22 12:42 UTC (3 hours ago):

TAF CYXU 221140Z 2212/2312 33005KT P6SM BKN030 TEMPO 2212/2214 OVC020 FM221700 32010KT P6SM SCT050 TEMPO 2217/2221 BKN050 FM222100 32010KT P6SM FEW050 FM230100 28006KT P6SM SCT050 BKN080 FM230500 23005KT P6SM FEW050 RMK NXT FCST BY 221800Z